Startpagina
METAR-TAF:

METAR-TAF

Vliegvelden :

Luchthaven Diori Hamani

Niamey, Niger

breedte: 13-29N, lengte: 002-10E, hoogte: 223 m

Actueel weer

Dit bericht is 36 minuten geleden gemaakt, om 13:00 UTC
Wind 11 kt uit het oostnoordoosten, variërend tussen het noordnoordoosten en het oosten
Temperatuur 38°C
Vochtigheid 9%
Druk 1009 hPa
Zicht 10 km of meer
geen wolken onder 1500 m en geen cumulonimbus

METAR: DRRN 171300Z 07011KT 030V100 CAVOK 38/00 Q1009 NOSIG

Tijdstip: 14:36 (13:36 UTC)

Verwachting

Dit bericht is 2 uur en het 36 minuten geleden gemaakt, om 11:00 UTC
Verwachting geldig van 17 om 12 UTC tot 18 om 18 UTC
Wind 8 kt uit het oostnoordoosten
Zicht: 8000 m
Tijdelijke
van 17 om 17 UTC tot 17 om 19 UTC
Zicht: 4500 m
verspreid stof

TAF: DRRN 171100Z 1712/1818 06008KT 8000 NSC TEMPO 1717/1719 4500 DU

Waarnemingen en weersverwachtingen van meer dan 4000 vliegvelden (METAR en TAF).

De beschikbare stations zijn de gele en rode punten op de kaart.

Ga met uw muis naar het station om de naam te zien.

Klik dan om waarnemingen en weersverwachtingen te zien.

kaart wijzigen: klik op de groene knoppen met een zwart kruis om in te zoomen, op de groene knop met een streepje om uit te zoomen of op de groene pijlen voor aangrenzende kaarten.


METAR-TAF: